Map

Track Data

SID SEASON NUMBER BASIN SUBBASIN NAME ISO_TIME NATURE LAT LON WMO_WIND WMO_PRES WMO_AGENCY TRACK_TYPE DIST2LAND LANDFALL IFLAG USA_AGENCY USA_ATCF_ID USA_LAT USA_LON USA_RECORD USA_STATUS USA_WIND USA_PRES USA_SSHS USA_R34_NE USA_R34_SE USA_R34_SW USA_R34_NW USA_R50_NE USA_R50_SE USA_R50_SW USA_R50_NW USA_R64_NE USA_R64_SE USA_R64_SW USA_R64_NW USA_POCI USA_ROCI USA_RMW USA_EYE TOKYO_LAT TOKYO_LON TOKYO_GRADE TOKYO_WIND TOKYO_PRES TOKYO_R50_DIR TOKYO_R50_LONG TOKYO_R50_SHORT TOKYO_R30_DIR TOKYO_R30_LONG TOKYO_R30_SHORT TOKYO_LAND CMA_LAT CMA_LON CMA_CAT CMA_WIND CMA_PRES HKO_LAT HKO_LON HKO_CAT HKO_WIND HKO_PRES NEWDELHI_LAT NEWDELHI_LON NEWDELHI_GRADE NEWDELHI_WIND NEWDELHI_PRES NEWDELHI_CI NEWDELHI_DP NEWDELHI_POCI REUNION_LAT REUNION_LON REUNION_TYPE REUNION_WIND REUNION_PRES REUNION_TNUM REUNION_CI REUNION_RMW REUNION_R34_NE REUNION_R34_SE REUNION_R34_SW REUNION_R34_NW REUNION_R50_NE REUNION_R50_SE REUNION_R50_SW REUNION_R50_NW REUNION_R64_NE REUNION_R64_SE REUNION_R64_SW REUNION_R64_NW BOM_LAT BOM_LON BOM_TYPE BOM_WIND BOM_PRES BOM_TNUM BOM_CI BOM_RMW BOM_R34_NE BOM_R34_SE BOM_R34_SW BOM_R34_NW BOM_R50_NE BOM_R50_SE BOM_R50_SW BOM_R50_NW BOM_R64_NE BOM_R64_SE BOM_R64_SW BOM_R64_NW BOM_ROCI BOM_POCI BOM_EYE BOM_POS_METHOD BOM_PRES_METHOD NADI_LAT NADI_LON NADI_CAT NADI_WIND NADI_PRES WELLINGTON_LAT WELLINGTON_LON WELLINGTON_WIND WELLINGTON_PRES DS824_LAT DS824_LON DS824_STAGE DS824_WIND DS824_PRES TD9636_LAT TD9636_LON TD9636_STAGE TD9636_WIND TD9636_PRES TD9635_LAT TD9635_LON TD9635_WIND TD9635_PRES TD9635_ROCI NEUMANN_LAT NEUMANN_LON NEUMANN_CLASS NEUMANN_WIND NEUMANN_PRES MLC_LAT MLC_LON MLC_CLASS MLC_WIND MLC_PRES USA_GUST BOM_GUST BOM_GUST_PER REUNION_GUST REUNION_GUST_PER USA_SEAHGT USA_SEARAD_NE USA_SEARAD_SE USA_SEARAD_SW USA_SEARAD_NW STORM_SPEED STORM_DIR
1982213N12253 1982 54 EP MM IVA 1982-08-01 06:00:00 TS 11.5000 -106.800 30 hurdat_epa main 839 839 O_________O___ hurdat_epa EP091982 11.5000 -106.800 TD 30 -1 11.5000 -106.800 1 30 10 274
1982213N12253 1982 54 EP MM IVA 1982-08-01 09:00:00 TS 11.5321 -107.319 main 863 863 P_________P___ EP091982 11.5303 -107.323 TD 30 -1 11.5374 -107.309 1 30 10 276
1982213N12253 1982 54 EP MM IVA 1982-08-01 12:00:00 TS 11.6000 -107.800 30 hurdat_epa main 880 880 O_________O___ hurdat_epa EP091982 11.6000 -107.800 TD 30 -1 11.6000 -107.800 1 30 9 283
1982213N12253 1982 54 EP MM IVA 1982-08-01 15:00:00 TS 11.7279 -108.220 main 894 891 P_________P___ EP091982 11.7348 -108.208 TD 30 -1 11.7071 -108.258 1 30 9 290
1982213N12253 1982 54 EP MM IVA 1982-08-01 18:00:00 TS 11.8880 -108.622 30 hurdat_epa main 901 901 O_________P___ hurdat_epa EP091982 11.9000 -108.600 TD 30 -1 11.8519 -108.687 1 30 9 291
1982213N12253 1982 54 EP MM IVA 1982-08-01 21:00:00 TS 12.0427 -109.062 main 926 917 P_________P___ EP091982 12.0500 -109.050 TD 30 -1 12.0208 -109.098 1 30 9 290
1982213N12253 1982 54 EP MM IVA 1982-08-02 00:00:00 TS 12.2000 -109.500 30 hurdat_epa main 931 931 O_________O___ hurdat_epa EP091982 12.2000 -109.500 TD 30 -1 12.2000 -109.500 1 30 9 290
1982213N12253 1982 54 EP MM IVA 1982-08-02 03:00:00 TS 12.3497 -109.910 main 945 936 P_________P___ EP091982 12.3424 -109.908 TD 30 -1 12.3717 -109.915 1 30 8 292
1982213N12253 1982 54 EP MM IVA 1982-08-02 06:00:00 TS 12.5125 -110.306 30 hurdat_epa main 952 950 O_________P___ hurdat_epa EP091982 12.5000 -110.300 TD 30 -1 12.5498 -110.323 1 30 9 295
1982213N12253 1982 54 EP MM IVA 1982-08-02 09:00:00 TS 12.7070 -110.710 main 962 961 P_________P___ EP091982 12.7000 -110.707 TD 30 -1 12.7280 -110.718 1 30 9 297
1982213N12253 1982 54 EP MM IVA 1982-08-02 12:00:00 TS 12.9000 -111.100 30 hurdat_epa main 974 974 O_________O___ hurdat_epa EP091982 12.9000 -111.100 TD 30 -1 12.9000 -111.100 1 30 8 295
1982213N12253 1982 54 EP MM IVA 1982-08-02 15:00:00 TS 13.0532 -111.455 main 988 988 P_________P___ EP091982 13.0574 -111.458 TD 32 -1 13.0405 -111.449 1 31 7 293
1982213N12253 1982 54 EP MM IVA 1982-08-02 18:00:00 TS 13.1942 -111.796 35 hurdat_epa main 1003 1003 O_________P___ hurdat_epa EP091982 13.2000 -111.800 TS 35 0 13.1769 -111.786 1 32 7 293
1982213N12253 1982 54 EP MM IVA 1982-08-02 21:00:00 TS 13.3324 -112.128 main 1018 1018 P_________P___ EP091982 13.3348 -112.128 TS 35 0 13.3249 -112.130 1 33 8 294
1982213N12253 1982 54 EP MM IVA 1982-08-03 00:00:00 TS 13.5000 -112.500 35 hurdat_epa main 1034 1034 O_________O___ hurdat_epa EP091982 13.5000 -112.500 TS 35 0 13.5000 -112.500 2 35 9 296
1982213N12253 1982 54 EP MM IVA 1982-08-03 03:00:00 TS 13.7367 -112.977 main 1059 1052 P_________P___ EP091982 13.7351 -112.992 TS 35 0 13.7417 -112.929 2 35 11 298
1982213N12253 1982 54 EP MM IVA 1982-08-03 06:00:00 TS 14.0019 -113.471 35 hurdat_epa main 1061 1048 O_________P___ hurdat_epa EP091982 14.0000 -113.500 TS 35 0 14.0076 -113.384 2 35 10 300
1982213N12253 1982 54 EP MM IVA 1982-08-03 09:00:00 TS 14.2605 -113.898 main 1046 1038 P_________P___ EP091982 14.2574 -113.915 TS 35 0 14.2698 -113.848 2 35 9 302
1982213N12253 1982 54 EP MM IVA 1982-08-03 12:00:00 TS 14.5000 -114.300 35 hurdat_epa main 1042 1037 O_________O___ hurdat_epa EP091982 14.5000 -114.300 TS 35 0 14.5000 -114.300 2 35 9 300
1982213N12253 1982 54 EP MM IVA 1982-08-03 15:00:00 TS 14.7197 -114.705 main 1041 1037 P_________P___ EP091982 14.7299 -114.700 TS 32 -1 14.6891 -114.719 2 33 9 296
1982213N12253 1982 54 EP MM IVA 1982-08-03 18:00:00 TS 14.8849 -115.106 30 hurdat_epa main 1043 1043 O_________P___ hurdat_epa EP091982 14.9000 -115.100 TD 30 -1 14.8396 -115.123 2 32 8 288
1982213N12253 1982 54 EP MM IVA 1982-08-03 21:00:00 TS 14.9713 -115.504 main 1055 1055 P_________P___ EP091982 14.9799 -115.500 TD 30 -1 14.9454 -115.515 2 31 8 279
1982213N12253 1982 54 EP MM IVA 1982-08-04 00:00:00 TS 15.0000 -115.900 30 hurdat_epa main 1079 1079 O_________O___ hurdat_epa EP091982 15.0000 -115.900 TD 30 -1 15.0000 -115.900 1 30 8 273
1982213N12253 1982 54 EP MM IVA 1982-08-04 03:00:00 TS 15.0179 -116.303 main 1104 1104 P_________P___ EP091982 15.0225 -116.307 TD 30 -1 15.0042 -116.291 1 30 8 269
1982213N12253 1982 54 EP MM IVA 1982-08-04 06:00:00 TS 14.9900 -116.693 30 hurdat_epa main 1129 1129 O_________P___ hurdat_epa EP091982 15.0000 -116.700 TD 30 -1 14.9598 -116.673 1 30 7 261
1982213N12253 1982 54 EP MM IVA 1982-08-04 09:00:00 TS 14.9076 -117.060 main 1165 1165 P_________P___ EP091982 14.9149 -117.065 TD 30 -1 14.8855 -117.044 1 30 7 254
1982213N12253 1982 54 EP MM IVA 1982-08-04 12:00:00 TS 14.8000 -117.400 30 hurdat_epa main 1194 1194 O_________O___ hurdat_epa EP091982 14.8000 -117.400 TD 30 -1 14.8000 -117.400 1 30 7 252
1982213N12253 1982 54 EP MM IVA 1982-08-04 15:00:00 TS 14.6992 -117.708 main 1223 1223 P_________P___ EP091982 14.6924 -117.700 TD 30 -1 14.7197 -117.731 1 28 6 252
1982213N12253 1982 54 EP MM IVA 1982-08-04 18:00:00 TS 14.6086 -118.013 30 hurdat_epa main 1252 1252 O_________P___ hurdat_epa EP091982 14.6000 -118.000 TD 30 -1 14.6346 -118.050 1 27 6 256
1982213N12253 1982 54 EP MM IVA 1982-08-04 21:00:00 TS 14.5405 -118.349 main 1282 1282 P_________P___ EP091982 14.5350 -118.342 TD 27 -1 14.5572 -118.369 1 26 7 261
1982213N12253 1982 54 EP MM IVA 1982-08-05 00:00:00 TS 14.5000 -118.700 25 hurdat_epa main 1311 1311 O_________O___ hurdat_epa EP091982 14.5000 -118.700 TD 25 -1 14.5000 -118.700 1 25 7 266
1982213N12253 1982 54 EP MM IVA 1982-08-05 03:00:00 TS 14.4889 -119.044 main 1333 1333 P_________P___ EP091982 14.4924 -119.042 TD 25 -1 14.4782 -119.048 1 25 7 270
1982213N12253 1982 54 EP MM IVA 1982-08-05 06:00:00 TS 14.4943 -119.403 25 hurdat_epa main 1364 1364 O_________P___ hurdat_epa EP091982 14.5000 -119.400 TD 25 -1 14.4772 -119.412 1 25 7 271
1982213N12253 1982 54 EP MM IVA 1982-08-05 09:00:00 TS 14.4968 -119.788 main 1394 1394 P_________P___ EP091982 14.4999 -119.785 TD 25 -1 14.4875 -119.795 1 25 8 270
1982213N12253 1982 54 EP MM IVA 1982-08-05 12:00:00 TS 14.5000 -120.200 25 hurdat_epa main 1420 1420 O_________O___ hurdat_epa EP091982 14.5000 -120.200 TD 25 -1 14.5000 -120.200 1 25 8 270
1982213N12253 1982 54 EP MM IVA 1982-08-05 15:00:00 TS 14.4969 -120.637 main 1446 1446 P_________P___ EP091982 14.5000 -120.643 TD 25 -1 14.4876 -120.621 1 25 9 270
1982213N12253 1982 54 EP MM IVA 1982-08-05 18:00:00 TS 14.4943 -121.091 25 hurdat_epa main 1478 1478 O_________P___ hurdat_epa EP091982 14.5000 -121.100 TD 25 -1 14.4772 -121.063 1 25 9 269
1982213N12253 1982 54 EP MM IVA 1982-08-05 21:00:00 TS 14.4888 -121.538 main 1505 1505 P_________P___ EP091982 14.4924 -121.543 TD 25 -1 14.4782 -121.524 1 25 9 270
1982213N12253 1982 54 EP MM IVA 1982-08-06 00:00:00 TS 14.5000 -122.000 25 hurdat_epa main 1540 1540 O_________O___ hurdat_epa EP091982 14.5000 -122.000 TD 25 -1 14.5000 -122.000 1 25 9 273
1982213N12253 1982 54 EP MM IVA 1982-08-06 03:00:00 TS 14.5416 -122.491 main 1575 1574 P_________P___ EP091982 14.5349 -122.493 TD 27 -1 14.5614 -122.485 1 26 10 277
1982213N12253 1982 54 EP MM IVA 1982-08-06 06:00:00 TS 14.6106 -122.996 30 hurdat_epa main 1604 1604 O_________P___ hurdat_epa EP091982 14.6000 -123.000 TD 30 -1 14.6423 -122.985 1 27 10 280
1982213N12253 1982 54 EP MM IVA 1982-08-06 09:00:00 TS 14.7123 -123.503 main 1633 1633 P_________P___ EP091982 14.7074 -123.507 TD 30 -1 14.7270 -123.492 1 28 10 281
1982213N12253 1982 54 EP MM IVA 1982-08-06 12:00:00 TS 14.8000 -124.000 30 hurdat_epa main 1663 1663 O_________O___ hurdat_epa EP091982 14.8000 -124.000 TD 30 -1 14.8000 -124.000 1 30 9 276
1982213N12253 1982 54 EP MM IVA 1982-08-06 15:00:00 TS 14.8152 -124.457 main 1702 1702 P_________P___ EP091982 14.8073 -124.443 TD 30 -1 14.8390 -124.500 1 28 9 271
1982213N12253 1982 54 EP MM IVA 1982-08-06 18:00:00 TS 14.8161 -124.925 30 hurdat_epa main 1734 1734 O_________P___ hurdat_epa EP091982 14.8000 -124.900 TD 30 -1 14.8646 -125.000 1 27 10 273
1982213N12253 1982 54 EP MM IVA 1982-08-06 21:00:00 TS 14.8582 -125.457 main 1775 1775 P_________P___ EP091982 14.8500 -125.442 TD 27 -1 14.8828 -125.500 1 26 10 275
1982213N12253 1982 54 EP MM IVA 1982-08-07 00:00:00 TS 14.9000 -126.000 25 hurdat_epa main 1816 1816 O_________O___ hurdat_epa EP091982 14.9000 -126.000 TD 25 -1 14.9000 -126.000 1 25 10 273
1982213N12253 1982 54 EP MM IVA 1982-08-07 03:00:00 TS 14.9060 -126.502 main 1858 1858 P_________P___ EP091982 14.8998 -126.508 TD 25 -1 14.9244 -126.484 1 25 10 271
1982213N12253 1982 54 EP MM IVA 1982-08-07 06:00:00 TS 14.9123 -126.993 25 hurdat_epa main 1892 1892 O_________P___ hurdat_epa EP091982 14.9000 -127.000 TD 25 -1 14.9491 -126.970 1 25 9 273
1982213N12253 1982 54 EP MM IVA 1982-08-07 09:00:00 TS 14.9559 -127.482 main 1918 1918 P_________P___ EP091982 14.9498 -127.485 TD 25 -1 14.9743 -127.471 1 25 10 275
1982213N12253 1982 54 EP MM IVA 1982-08-07 12:00:00 TS 15.0000 -128.000 25 hurdat_epa main 1953 1953 O_________O___ hurdat_epa EP091982 15.0000 -128.000 TD 25 -1 15.0000 -128.000 1 25 11 273
1982213N12253 1982 54 EP MM IVA 1982-08-07 15:00:00 TS 15.0062 -128.585 main 1996 1996 P_________P___ EP091982 15.0000 -128.585 TD 25 -1 15.0251 -128.583 1 25 12 271
1982213N12253 1982 54 EP MM IVA 1982-08-07 18:00:00 TS 15.0125 -129.198 25 hurdat_epa main 2040 2040 O_________P___ hurdat_epa EP091982 15.0000 -129.200 TD 25 -1 15.0502 -129.193 1 25 12 272
1982213N12253 1982 54 EP MM IVA 1982-08-07 21:00:00 TS 15.0506 -129.807 main 2077 2077 P_________P___ EP091982 15.0424 -129.807 TD 25 -1 15.0751 -129.805 1 25 12 274
1982213N12253 1982 54 EP MM IVA 1982-08-08 00:00:00 TS 15.1000 -130.400 25 hurdat_epa main 2123 2123 O_________O___ hurdat_epa EP091982 15.1000 -130.400 TD 25 -1 15.1000 -130.400 1 25 11 275
1982213N12253 1982 54 EP MM IVA 1982-08-08 03:00:00 TS 15.1493 -130.964 main 2169 2162 P_________P___ EP091982 15.1574 -130.965 TD 25 -1 15.1252 -130.960 1 25 11 275
1982213N12253 1982 54 EP MM IVA 1982-08-08 06:00:00 TS 15.1876 -131.497 25 hurdat_epa main 2201 2201 O_________P___ hurdat_epa EP091982 15.2000 -131.500 TD 25 -1 15.1504 -131.490 1 25 10 273
1982213N12253 1982 54 EP MM IVA 1982-08-08 09:00:00 TS 15.2015 -132.006 main 2241 2241 P_________P___ EP091982 15.2102 -132.008 TD 25 -1 15.1755 -132.000 1 25 10 271
1982213N12253 1982 54 EP MM IVA 1982-08-08 12:00:00 TS 15.2000 -132.500 25 hurdat_epa main 2282 O_________O___ hurdat_epa EP091982 15.2000 -132.500 TD 25 -1 15.2000 -132.500 1 25 10 270

About IBTrACS Database

This database is a web-friendly format of International Best Track Archive for Climate Stewardship (IBTrACS), a global best track data archive curated by NOAA dating back to 1842.

Updated: 2021-11-26